METAR Data

Data at: 1808 UTC 21 Nov 2018

METAR for:KLCI (Laconia Muni, NH, US)
Text:KLCI 211756Z AUTO 22011KT 4SM -SN BR FEW014 BKN031 OVC047 00/M02 A2977 RMK AO2 SLP100 P0000 60000 T00001022 10006 21078 58037 FZRANO $
Temperature: 0.0°C ( 32°F)
Dewpoint: -2.2°C ( 28°F) [RH = 85%]
Pressure (altimeter):29.77 inches Hg (1008.2 mb) [Sea level pressure: 1010.0 mb]
Winds:from the SW (220 degrees) at 13 MPH (11 knots; 5.7 m/s)
Visibility: 4 sm ( 6 km)
Ceiling:3100 feet AGL
Clouds: few clouds at 1400 feet AGL, broken clouds at 3100 feet AGL, overcast cloud deck at 4700 feet AGL
Weather:-SN BR (light snow, mist)
QC Flag:automated observation with no human augmentation; SOME DATA ABOVE MAY BE INACCURATE!!!"$" is an indication the sensor requires maintenance.